sensor_id;sensor_type;location;lat;lon;timestamp;pressure;altitude;pressure_sealevel;temperature;humidity
62548;BME280;48602;45.192;5.722;2022-12-18T00:02:11;100192.59;;;2.36;84.47
62548;BME280;48602;45.192;5.722;2022-12-18T00:04:37;100196.97;;;2.39;84.48
62548;BME280;48602;45.192;5.722;2022-12-18T00:07:02;100202.22;;;2.42;84.22
62548;BME280;48602;45.192;5.722;2022-12-18T00:09:28;100204.88;;;2.48;86.62
62548;BME280;48602;45.192;5.722;2022-12-18T00:11:53;100204.09;;;2.57;84.54
62548;BME280;48602;45.192;5.722;2022-12-18T00:14:19;100204.09;;;2.58;85.10
62548;BME280;48602;45.192;5.722;2022-12-18T00:16:45;100212.84;;;2.63;83.75
62548;BME280;48602;45.192;5.722;2022-12-18T00:19:12;100213.72;;;2.64;83.70
62548;BME280;48602;45.192;5.722;2022-12-18T00:21:39;100214.56;;;2.63;83.80
62548;BME280;48602;45.192;5.722;2022-12-18T00:24:04;100218.03;;;2.63;83.44
62548;BME280;48602;45.192;5.722;2022-12-18T00:26:32;100224.13;;;2.64;83.70
62548;BME280;48602;45.192;5.722;2022-12-18T00:29:06;100221.50;;;2.64;83.64
62548;BME280;48602;45.192;5.722;2022-12-18T00:31:32;100226.72;;;2.64;83.53
62548;BME280;48602;45.192;5.722;2022-12-18T00:33:57;100222.38;;;2.64;83.59
62548;BME280;48602;45.192;5.722;2022-12-18T00:36:25;100227.59;;;2.64;83.62
62548;BME280;48602;45.192;5.722;2022-12-18T00:38:53;100226.72;;;2.64;83.48
62548;BME280;48602;45.192;5.722;2022-12-18T00:41:20;100231.91;;;2.62;83.78
62548;BME280;48602;45.192;5.722;2022-12-18T00:44:06;100228.44;;;2.62;83.44
62548;BME280;48602;45.192;5.722;2022-12-18T00:46:32;100231.00;;;2.59;83.15
62548;BME280;48602;45.192;5.722;2022-12-18T00:48:58;100232.69;;;2.55;83.12
62548;BME280;48602;45.192;5.722;2022-12-18T00:51:24;100228.31;;;2.53;83.26
62548;BME280;48602;45.192;5.722;2022-12-18T00:53:50;100230.94;;;2.51;83.26
62548;BME280;48602;45.192;5.722;2022-12-18T00:56:15;100233.50;;;2.48;83.45
62548;BME280;48602;45.192;5.722;2022-12-18T00:58:41;100232.63;;;2.48;83.42
62548;BME280;48602;45.192;5.722;2022-12-18T01:01:06;100236.94;;;2.45;83.84
62548;BME280;48602;45.192;5.722;2022-12-18T01:03:32;100230.84;;;2.43;83.48
62548;BME280;48602;45.192;5.722;2022-12-18T01:05:58;100222.16;;;2.41;83.77
62548;BME280;48602;45.192;5.722;2022-12-18T01:08:23;100236.00;;;2.39;83.57
62548;BME280;48602;45.192;5.722;2022-12-18T01:10:49;100234.22;;;2.36;83.83
62548;BME280;48602;45.192;5.722;2022-12-18T01:13:14;100229.88;;;2.35;83.87
62548;BME280;48602;45.192;5.722;2022-12-18T01:15:39;100236.81;;;2.33;83.45
62548;BME280;48602;45.192;5.722;2022-12-18T01:18:06;100238.56;;;2.33;83.68
62548;BME280;48602;45.192;5.722;2022-12-18T01:20:32;100236.81;;;2.32;83.92
62548;BME280;48602;45.192;5.722;2022-12-18T01:22:57;100240.28;;;2.32;83.89
62548;BME280;48602;45.192;5.722;2022-12-18T01:25:23;100237.66;;;2.31;83.57
62548;BME280;48602;45.192;5.722;2022-12-18T01:27:49;100234.16;;;2.27;83.91
62548;BME280;48602;45.192;5.722;2022-12-18T01:30:14;100245.41;;;2.26;83.91
62548;BME280;48602;45.192;5.722;2022-12-18T01:32:40;100238.47;;;2.25;84.03
62548;BME280;48602;45.192;5.722;2022-12-18T01:35:05;100239.28;;;2.23;83.90
62548;BME280;48602;45.192;5.722;2022-12-18T01:37:31;100242.75;;;2.22;84.29
62548;BME280;48602;45.192;5.722;2022-12-18T01:39:57;100249.66;;;2.20;84.23
62548;BME280;48602;45.192;5.722;2022-12-18T01:42:22;100247.91;;;2.19;83.97
62548;BME280;48602;45.192;5.722;2022-12-18T01:49:58;100245.28;;;2.16;83.94
62548;BME280;48602;45.192;5.722;2022-12-18T01:52:26;100250.47;;;2.14;84.01
62548;BME280;48602;45.192;5.722;2022-12-18T01:54:54;100258.28;;;2.14;83.83
62548;BME280;48602;45.192;5.722;2022-12-18T01:57:21;100259.13;;;2.13;84.29
62548;BME280;48602;45.192;5.722;2022-12-18T01:59:50;100258.28;;;2.14;84.23
62548;BME280;48602;45.192;5.722;2022-12-18T02:02:18;100254.75;;;2.10;84.26
62548;BME280;48602;45.192;5.722;2022-12-18T02:04:44;100259.97;;;2.10;84.14
62548;BME280;48602;45.192;5.722;2022-12-18T02:10:26;100261.72;;;2.13;84.29
62548;BME280;48602;45.192;5.722;2022-12-18T02:13:01;100256.53;;;2.13;84.51
62548;BME280;48602;45.192;5.722;2022-12-18T02:15:39;100259.13;;;2.13;84.24
62548;BME280;48602;45.192;5.722;2022-12-18T02:18:10;100266.09;;;2.14;84.40
62548;BME280;48602;45.192;5.722;2022-12-18T02:26:30;100268.69;;;2.14;84.58
62548;BME280;48602;45.192;5.722;2022-12-18T02:29:15;100269.50;;;2.12;84.59
62548;BME280;48602;45.192;5.722;2022-12-18T02:31:48;100266.03;;;2.09;84.78
62548;BME280;48602;45.192;5.722;2022-12-18T02:34:17;100271.25;;;2.11;84.94
62548;BME280;48602;45.192;5.722;2022-12-18T02:36:45;100267.75;;;2.10;85.08
62548;BME280;48602;45.192;5.722;2022-12-18T02:39:13;100273.84;;;2.11;84.85
62548;BME280;48602;45.192;5.722;2022-12-18T02:41:40;100277.28;;;2.10;85.19
62548;BME280;48602;45.192;5.722;2022-12-18T02:44:10;100279.03;;;2.11;85.47
62548;BME280;48602;45.192;5.722;2022-12-18T02:46:39;100279.03;;;2.09;85.36
62548;BME280;48602;45.192;5.722;2022-12-18T02:52:07;100289.50;;;2.16;85.75
62548;BME280;48602;45.192;5.722;2022-12-18T03:00:40;100296.47;;;2.20;85.50
62548;BME280;48602;45.192;5.722;2022-12-18T03:03:12;100295.59;;;2.19;85.73
62548;BME280;48602;45.192;5.722;2022-12-18T03:05:53;100293.84;;;2.18;85.57
62548;BME280;48602;45.192;5.722;2022-12-18T03:08:26;100296.47;;;2.18;86.00
62548;BME280;48602;45.192;5.722;2022-12-18T03:11:01;100302.53;;;2.17;85.90
62548;BME280;48602;45.192;5.722;2022-12-18T03:13:35;100300.78;;;2.16;85.21
62548;BME280;48602;45.192;5.722;2022-12-18T03:16:03;100301.63;;;2.14;84.76
62548;BME280;48602;45.192;5.722;2022-12-18T03:18:32;100299.84;;;2.11;84.74
62548;BME280;48602;45.192;5.722;2022-12-18T03:21:03;100301.53;;;2.07;84.46
62548;BME280;48602;45.192;5.722;2022-12-18T03:23:36;100300.63;;;2.04;83.88
62548;BME280;48602;45.192;5.722;2022-12-18T03:26:14;100306.66;;;2.01;83.88
62548;BME280;48602;45.192;5.722;2022-12-18T03:28:45;100301.44;;;1.98;83.61
62548;BME280;48602;45.192;5.722;2022-12-18T03:31:13;100305.72;;;1.95;83.59
62548;BME280;48602;45.192;5.722;2022-12-18T03:33:47;100309.13;;;1.92;83.52
62548;BME280;48602;45.192;5.722;2022-12-18T03:36:16;100306.50;;;1.89;83.81
62548;BME280;48602;45.192;5.722;2022-12-18T03:38:42;100306.47;;;1.88;83.43
62548;BME280;48602;45.192;5.722;2022-12-18T03:43:52;100314.19;;;1.82;83.69
62548;BME280;48602;45.192;5.722;2022-12-18T03:46:32;100301.16;;;1.79;83.59
62548;BME280;48602;45.192;5.722;2022-12-18T03:49:11;100307.19;;;1.76;83.60
62548;BME280;48602;45.192;5.722;2022-12-18T03:51:42;100319.28;;;1.74;83.45
62548;BME280;48602;45.192;5.722;2022-12-18T03:54:14;100321.81;;;1.71;83.81
62548;BME280;48602;45.192;5.722;2022-12-18T03:56:44;100314.00;;;1.69;83.92
62548;BME280;48602;45.192;5.722;2022-12-18T03:59:12;100324.41;;;1.69;83.77
62548;BME280;48602;45.192;5.722;2022-12-18T04:01:42;100327.88;;;1.70;84.04
62548;BME280;48602;45.192;5.722;2022-12-18T04:04:12;100335.66;;;1.70;84.29
62548;BME280;48602;45.192;5.722;2022-12-18T04:06:38;100333.94;;;1.70;84.15
62548;BME280;48602;45.192;5.722;2022-12-18T04:09:05;100329.56;;;1.68;84.42
62548;BME280;48602;45.192;5.722;2022-12-18T04:11:31;100326.97;;;1.66;84.42
62548;BME280;48602;45.192;5.722;2022-12-18T04:13:57;100332.16;;;1.68;84.57
62548;BME280;48602;45.192;5.722;2022-12-18T04:16:27;100337.38;;;1.68;84.50
62548;BME280;48602;45.192;5.722;2022-12-18T04:18:53;100338.22;;;1.65;84.67
62548;BME280;48602;45.192;5.722;2022-12-18T04:21:19;100334.72;;;1.63;84.97
62548;BME280;48602;45.192;5.722;2022-12-18T04:23:45;100333.81;;;1.61;84.57
62548;BME280;48602;45.192;5.722;2022-12-18T04:26:10;100336.41;;;1.61;84.53
62548;BME280;48602;45.192;5.722;2022-12-18T04:28:36;100340.75;;;1.61;84.74
62548;BME280;48602;45.192;5.722;2022-12-18T04:31:01;100339.88;;;1.60;84.60
62548;BME280;48602;45.192;5.722;2022-12-18T04:33:27;100348.53;;;1.61;84.39
62548;BME280;48602;45.192;5.722;2022-12-18T04:35:53;100335.50;;;1.58;84.11
62548;BME280;48602;45.192;5.722;2022-12-18T04:38:18;100354.53;;;1.57;84.23
62548;BME280;48602;45.192;5.722;2022-12-18T04:40:43;100349.34;;;1.57;84.20
62548;BME280;48602;45.192;5.722;2022-12-18T04:43:09;100345.84;;;1.55;84.59
62548;BME280;48602;45.192;5.722;2022-12-18T04:45:34;100356.19;;;1.53;84.09
62548;BME280;48602;45.192;5.722;2022-12-18T04:48:01;100354.44;;;1.52;84.07
62548;BME280;48602;45.192;5.722;2022-12-18T04:50:27;100350.97;;;1.50;84.00
62548;BME280;48602;45.192;5.722;2022-12-18T04:52:54;100353.59;;;1.50;83.96
62548;BME280;48602;45.192;5.722;2022-12-18T04:55:19;100362.19;;;1.48;84.15
62548;BME280;48602;45.192;5.722;2022-12-18T04:57:45;100361.28;;;1.46;84.11
62548;BME280;48602;45.192;5.722;2022-12-18T05:00:11;100368.22;;;1.45;84.20
62548;BME280;48602;45.192;5.722;2022-12-18T05:02:36;100366.44;;;1.43;84.22
62548;BME280;48602;45.192;5.722;2022-12-18T05:05:02;100369.00;;;1.41;84.36
62548;BME280;48602;45.192;5.722;2022-12-18T05:07:28;100363.72;;;1.36;84.20
62548;BME280;48602;45.192;5.722;2022-12-18T05:09:53;100371.50;;;1.35;84.45
62548;BME280;48602;45.192;5.722;2022-12-18T05:12:18;100364.56;;;1.34;84.55
62548;BME280;48602;45.192;5.722;2022-12-18T05:14:44;100378.41;;;1.33;84.59
62548;BME280;48602;45.192;5.722;2022-12-18T05:17:09;100376.66;;;1.32;84.61
62548;BME280;48602;45.192;5.722;2022-12-18T05:19:35;100381.84;;;1.32;84.71
62548;BME280;48602;45.192;5.722;2022-12-18T05:22:00;100389.66;;;1.32;85.02
62548;BME280;48602;45.192;5.722;2022-12-18T05:24:26;100383.53;;;1.30;85.05
62548;BME280;48602;45.192;5.722;2022-12-18T05:26:51;100387.00;;;1.29;85.13
62548;BME280;48602;45.192;5.722;2022-12-18T05:29:17;100389.59;;;1.29;84.95
62548;BME280;48602;45.192;5.722;2022-12-18T05:31:42;100392.19;;;1.29;84.86
62548;BME280;48602;45.192;5.722;2022-12-18T05:34:08;100387.88;;;1.29;85.01
62548;BME280;48602;45.192;5.722;2022-12-18T05:36:33;100396.53;;;1.30;85.15
62548;BME280;48602;45.192;5.722;2022-12-18T05:38:59;100387.00;;;1.29;85.04
62548;BME280;48602;45.192;5.722;2022-12-18T05:41:25;100384.38;;;1.29;85.14
62548;BME280;48602;45.192;5.722;2022-12-18T05:43:51;100391.31;;;1.28;84.98
62548;BME280;48602;45.192;5.722;2022-12-18T05:46:17;100397.38;;;1.29;85.23
62548;BME280;48602;45.192;5.722;2022-12-18T05:48:44;100391.28;;;1.27;85.11
62548;BME280;48602;45.192;5.722;2022-12-18T05:51:14;100400.81;;;1.28;85.28
62548;BME280;48602;45.192;5.722;2022-12-18T05:53:41;100393.00;;;1.26;85.30
62548;BME280;48602;45.192;5.722;2022-12-18T05:56:10;100397.31;;;1.26;85.37
62548;BME280;48602;45.192;5.722;2022-12-18T05:58:36;100401.59;;;1.24;85.62
62548;BME280;48602;45.192;5.722;2022-12-18T06:01:11;100403.28;;;1.22;85.66
62548;BME280;48602;45.192;5.722;2022-12-18T06:03:37;100411.94;;;1.21;85.40
62548;BME280;48602;45.192;5.722;2022-12-18T06:06:03;100415.38;;;1.20;85.74
62548;BME280;48602;45.192;5.722;2022-12-18T06:08:28;100413.63;;;1.19;86.24
62548;BME280;48602;45.192;5.722;2022-12-18T06:10:54;100419.66;;;1.16;86.44
62548;BME280;48602;45.192;5.722;2022-12-18T06:13:20;100421.34;;;1.14;86.80
62548;BME280;48602;45.192;5.722;2022-12-18T06:15:45;100419.59;;;1.13;86.69
62548;BME280;48602;45.192;5.722;2022-12-18T06:18:10;100427.38;;;1.12;86.85
62548;BME280;48602;45.192;5.722;2022-12-18T06:20:36;100430.81;;;1.11;86.67
62548;BME280;48602;45.192;5.722;2022-12-18T06:23:05;100436.81;;;1.08;86.56
62548;BME280;48602;45.192;5.722;2022-12-18T06:25:30;100441.13;;;1.08;86.66
62548;BME280;48602;45.192;5.722;2022-12-18T06:27:55;100443.66;;;1.04;86.49
62548;BME280;48602;45.192;5.722;2022-12-18T06:30:22;100447.94;;;1.02;86.55
62548;BME280;48602;45.192;5.722;2022-12-18T06:32:48;100452.28;;;1.03;87.01
62548;BME280;48602;45.192;5.722;2022-12-18T06:35:14;100449.69;;;1.03;86.92
62548;BME280;48602;45.192;5.722;2022-12-18T06:37:39;100454.91;;;1.05;87.30
62548;BME280;48602;45.192;5.722;2022-12-18T06:40:05;100452.28;;;1.03;86.76
62548;BME280;48602;45.192;5.722;2022-12-18T06:42:31;100460.13;;;1.05;87.30
62548;BME280;48602;45.192;5.722;2022-12-18T06:44:57;100462.72;;;1.05;87.13
62548;BME280;48602;45.192;5.722;2022-12-18T06:47:22;100463.56;;;1.04;87.37
62548;BME280;48602;45.192;5.722;2022-12-18T06:49:48;100470.44;;;1.02;87.59
62548;BME280;48602;45.192;5.722;2022-12-18T06:52:16;100478.22;;;1.00;87.66
62548;BME280;48602;45.192;5.722;2022-12-18T06:54:42;100479.94;;;1.00;88.29
62548;BME280;48602;45.192;5.722;2022-12-18T06:57:07;100484.25;;;1.01;87.82
62548;BME280;48602;45.192;5.722;2022-12-18T06:59:33;100488.59;;;1.00;88.17
62548;BME280;48602;45.192;5.722;2022-12-18T07:01:58;100492.06;;;0.99;88.51
62548;BME280;48602;45.192;5.722;2022-12-18T07:04:30;100491.16;;;0.99;88.21
62548;BME280;48602;45.192;5.722;2022-12-18T07:06:55;100494.59;;;0.98;88.93
62548;BME280;48602;45.192;5.722;2022-12-18T07:09:21;100509.28;;;0.96;88.80
62548;BME280;48602;45.192;5.722;2022-12-18T07:11:46;100509.28;;;0.96;88.81
62548;BME280;48602;45.192;5.722;2022-12-18T07:14:11;100510.16;;;0.96;89.04
62548;BME280;48602;45.192;5.722;2022-12-18T07:16:37;100514.50;;;0.97;88.86
62548;BME280;48602;45.192;5.722;2022-12-18T07:19:02;100520.56;;;0.98;88.90
62548;BME280;48602;45.192;5.722;2022-12-18T07:21:37;100517.13;;;0.99;88.65
62548;BME280;48602;45.192;5.722;2022-12-18T07:24:03;100520.56;;;0.98;88.56
62548;BME280;48602;45.192;5.722;2022-12-18T07:26:28;100515.34;;;0.96;88.45
62548;BME280;48602;45.192;5.722;2022-12-18T07:28:55;100519.66;;;0.96;88.52
62548;BME280;48602;45.192;5.722;2022-12-18T07:31:22;100526.56;;;0.95;88.65
62548;BME280;48602;45.192;5.722;2022-12-18T07:33:49;100519.63;;;0.94;88.90
62548;BME280;48602;45.192;5.722;2022-12-18T07:36:15;100534.38;;;0.95;88.46
62548;BME280;48602;45.192;5.722;2022-12-18T07:38:41;100521.41;;;0.97;88.41
62548;BME280;48602;45.192;5.722;2022-12-18T07:41:09;100526.69;;;1.00;88.66
62548;BME280;48602;45.192;5.722;2022-12-18T07:43:35;100523.22;;;0.99;88.78
62548;BME280;48602;45.192;5.722;2022-12-18T07:46:05;100534.47;;;1.01;88.59
62548;BME280;48602;45.192;5.722;2022-12-18T07:48:31;100528.44;;;1.02;88.82
62548;BME280;48602;45.192;5.722;2022-12-18T07:51:05;100534.53;;;1.04;88.93
62548;BME280;48602;45.192;5.722;2022-12-18T07:53:31;100533.72;;;1.07;88.96
62548;BME280;48602;45.192;5.722;2022-12-18T07:55:58;100539.84;;;1.09;88.54
62548;BME280;48602;45.192;5.722;2022-12-18T07:58:24;100534.69;;;1.11;88.66
62548;BME280;48602;45.192;5.722;2022-12-18T08:00:50;100535.56;;;1.11;88.78
62548;BME280;48602;45.192;5.722;2022-12-18T08:03:15;100546.03;;;1.16;88.80
62548;BME280;48602;45.192;5.722;2022-12-18T08:05:41;100537.41;;;1.18;88.68
62548;BME280;48602;45.192;5.722;2022-12-18T08:08:06;100547.00;;;1.21;88.38
62548;BME280;48602;45.192;5.722;2022-12-18T08:10:31;100542.69;;;1.21;88.34
62548;BME280;48602;45.192;5.722;2022-12-18T08:12:57;100543.63;;;1.25;88.05
62548;BME280;48602;45.192;5.722;2022-12-18T08:15:23;100541.97;;;1.28;88.05
62548;BME280;48602;45.192;5.722;2022-12-18T08:17:48;100537.75;;;1.33;87.05
62548;BME280;48602;45.192;5.722;2022-12-18T08:20:14;100536.09;;;1.38;87.52
62548;BME280;48602;45.192;5.722;2022-12-18T08:22:41;100538.84;;;1.46;87.40
62548;BME280;48602;45.192;5.722;2022-12-18T08:25:07;100539.88;;;1.56;87.49
62548;BME280;48602;45.192;5.722;2022-12-18T08:27:32;100548.78;;;1.67;87.06
62548;BME280;48602;45.192;5.722;2022-12-18T08:29:58;100537.63;;;1.74;86.87
62548;BME280;48602;45.192;5.722;2022-12-18T08:32:25;100536.94;;;1.83;86.22
62548;BME280;48602;45.192;5.722;2022-12-18T08:34:51;100529.19;;;1.87;85.86
62548;BME280;48602;45.192;5.722;2022-12-18T08:37:16;100524.13;;;1.93;85.69
62548;BME280;48602;45.192;5.722;2022-12-18T08:39:41;100533.72;;;1.97;85.46
62548;BME280;48602;45.192;5.722;2022-12-18T08:42:07;100534.66;;;2.01;85.29
62548;BME280;48602;45.192;5.722;2022-12-18T08:44:50;100532.09;;;2.04;85.32
62548;BME280;48602;45.192;5.722;2022-12-18T08:47:16;100530.31;;;2.03;85.50
62548;BME280;48602;45.192;5.722;2022-12-18T08:49:41;100526.09;;;2.08;85.76
62548;BME280;48602;45.192;5.722;2022-12-18T08:52:07;100520.19;;;2.17;86.14
62548;BME280;48602;45.192;5.722;2022-12-18T08:54:32;100522.16;;;2.31;85.86
62548;BME280;48602;45.192;5.722;2022-12-18T08:56:58;100524.88;;;2.40;85.46
62548;BME280;48602;45.192;5.722;2022-12-18T08:59:23;100515.38;;;2.44;85.65
62548;BME280;48602;45.192;5.722;2022-12-18T09:01:49;100522.41;;;2.50;85.33
62548;BME280;48602;45.192;5.722;2022-12-18T09:04:15;100511.16;;;2.51;85.60
62548;BME280;48602;45.192;5.722;2022-12-18T09:06:40;100506.88;;;2.56;85.39
62548;BME280;48602;45.192;5.722;2022-12-18T09:09:06;100509.56;;;2.60;85.03
62548;BME280;48602;45.192;5.722;2022-12-18T09:11:33;100512.16;;;2.60;85.19
62548;BME280;48602;45.192;5.722;2022-12-18T09:14:00;100513.09;;;2.64;85.33
62548;BME280;48602;45.192;5.722;2022-12-18T09:16:27;100504.47;;;2.71;84.80
62548;BME280;48602;45.192;5.722;2022-12-18T09:18:54;100507.97;;;2.73;84.81
62548;BME280;48602;45.192;5.722;2022-12-18T09:21:25;100512.38;;;2.75;84.78
62548;BME280;48602;45.192;5.722;2022-12-18T09:23:52;100517.56;;;2.75;84.76
62548;BME280;48602;45.192;5.722;2022-12-18T09:26:18;100512.41;;;2.78;84.50
62548;BME280;48602;45.192;5.722;2022-12-18T09:28:44;100511.56;;;2.79;84.38
62548;BME280;48602;45.192;5.722;2022-12-18T09:31:11;100506.41;;;2.84;84.55
62548;BME280;48602;45.192;5.722;2022-12-18T09:33:40;100513.41;;;2.88;84.21
62548;BME280;48602;45.192;5.722;2022-12-18T09:36:07;100511.72;;;2.92;84.31
62548;BME280;48602;45.192;5.722;2022-12-18T09:38:34;100517.00;;;2.98;84.37
62548;BME280;48602;45.192;5.722;2022-12-18T09:44:00;100505.88;;;3.09;83.75
62548;BME280;48602;45.192;5.722;2022-12-18T09:46:29;100508.53;;;3.14;84.19
62548;BME280;48602;45.192;5.722;2022-12-18T09:48:59;100513.81;;;3.22;83.64
62548;BME280;48602;45.192;5.722;2022-12-18T09:51:30;100518.25;;;3.27;83.49
62548;BME280;48602;45.192;5.722;2022-12-18T09:54:15;100517.44;;;3.33;83.08
62548;BME280;48602;45.192;5.722;2022-12-18T09:56:43;100522.72;;;3.39;83.18
62548;BME280;48602;45.192;5.722;2022-12-18T09:59:35;100521.97;;;3.49;82.74
62548;BME280;48602;45.192;5.722;2022-12-18T10:02:14;100523.75;;;3.55;82.79
62548;BME280;48602;45.192;5.722;2022-12-18T10:04:40;100529.06;;;3.62;82.33
62548;BME280;48602;45.192;5.722;2022-12-18T10:07:19;100523.91;;;3.67;82.01
62548;BME280;48602;45.192;5.722;2022-12-18T10:10:01;100523.91;;;3.70;81.94
62548;BME280;48602;45.192;5.722;2022-12-18T10:12:34;100526.56;;;3.76;82.10
62548;BME280;48602;45.192;5.722;2022-12-18T10:15:27;100528.38;;;3.81;81.63
62548;BME280;48602;45.192;5.722;2022-12-18T10:20:49;100524.16;;;3.94;80.94
62548;BME280;48602;45.192;5.722;2022-12-18T10:26:04;100515.53;;;4.04;81.10
62548;BME280;48602;45.192;5.722;2022-12-18T10:28:33;100517.31;;;4.08;80.79
62548;BME280;48602;45.192;5.722;2022-12-18T10:30:59;100510.38;;;4.12;80.60
62548;BME280;48602;45.192;5.722;2022-12-18T10:33:28;100508.69;;;4.17;80.18
62548;BME280;48602;45.192;5.722;2022-12-18T10:35:54;100505.22;;;4.19;80.46
62548;BME280;48602;45.192;5.722;2022-12-18T10:38:25;100498.31;;;4.25;80.08
62548;BME280;48602;45.192;5.722;2022-12-18T10:41:06;100488.75;;;4.28;80.22
62548;BME280;48602;45.192;5.722;2022-12-18T10:46:42;100494.06;;;4.40;79.93
62548;BME280;48602;45.192;5.722;2022-12-18T10:49:29;100487.16;;;4.47;80.04
62548;BME280;48602;45.192;5.722;2022-12-18T10:52:18;100486.31;;;4.54;79.26
62548;BME280;48602;45.192;5.722;2022-12-18T10:59:55;100475.97;;;4.68;78.76
62548;BME280;48602;45.192;5.722;2022-12-18T11:02:39;100474.22;;;4.71;78.50
62548;BME280;48602;45.192;5.722;2022-12-18T11:05:33;100475.09;;;4.73;78.28
62548;BME280;48602;45.192;5.722;2022-12-18T11:07:59;100471.63;;;4.74;78.41
62548;BME280;48602;45.192;5.722;2022-12-18T11:10:37;100474.25;;;4.77;78.59
62548;BME280;48602;45.192;5.722;2022-12-18T11:13:17;100464.72;;;4.81;77.99
62548;BME280;48602;45.192;5.722;2022-12-18T11:15:44;100462.09;;;4.87;78.15
62548;BME280;48602;45.192;5.722;2022-12-18T11:20:50;100451.72;;;4.96;77.10
62548;BME280;48602;45.192;5.722;2022-12-18T11:23:19;100441.28;;;5.01;76.85
62548;BME280;48602;45.192;5.722;2022-12-18T11:25:57;100446.50;;;5.07;76.76
62548;BME280;48602;45.192;5.722;2022-12-18T11:28:27;100440.44;;;5.12;76.50
62548;BME280;48602;45.192;5.722;2022-12-18T11:33:46;100434.34;;;5.21;75.55
62548;BME280;48602;45.192;5.722;2022-12-18T11:36:12;100432.63;;;5.26;75.11
62548;BME280;48602;45.192;5.722;2022-12-18T11:38:40;100427.41;;;5.28;74.98
62548;BME280;48602;45.192;5.722;2022-12-18T11:41:30;100419.56;;;5.29;74.66
62548;BME280;48602;45.192;5.722;2022-12-18T11:44:26;100415.22;;;5.30;74.12
62548;BME280;48602;45.192;5.722;2022-12-18T11:46:59;100411.72;;;5.31;74.32
62548;BME280;48602;45.192;5.722;2022-12-18T11:54:40;100403.91;;;5.35;74.59
62548;BME280;48602;45.192;5.722;2022-12-18T11:59:47;100404.75;;;5.43;74.20
62548;BME280;48602;45.192;5.722;2022-12-18T12:02:47;100398.69;;;5.49;73.84
62548;BME280;48602;45.192;5.722;2022-12-18T12:05:28;100393.44;;;5.55;73.73
62548;BME280;48602;45.192;5.722;2022-12-18T12:10:55;100389.09;;;5.63;73.64
62548;BME280;48602;45.192;5.722;2022-12-18T12:14:05;100378.63;;;5.66;73.95
62548;BME280;48602;45.192;5.722;2022-12-18T12:16:59;100376.88;;;5.71;73.85
62548;BME280;48602;45.192;5.722;2022-12-18T12:22:22;100370.78;;;5.75;74.01
62548;BME280;48602;45.192;5.722;2022-12-18T12:30:28;100355.94;;;5.82;73.87
62548;BME280;48602;45.192;5.722;2022-12-18T12:38:46;100344.59;;;5.84;74.03
62548;BME280;48602;45.192;5.722;2022-12-18T12:41:22;100342.00;;;5.86;74.03
62548;BME280;48602;45.192;5.722;2022-12-18T12:44:12;100349.84;;;5.86;74.28
62548;BME280;48602;45.192;5.722;2022-12-18T12:46:41;100349.81;;;5.87;74.68
62548;BME280;48602;45.192;5.722;2022-12-18T12:49:13;100347.22;;;5.89;74.74
62548;BME280;48602;45.192;5.722;2022-12-18T12:51:45;100343.75;;;5.93;74.72
62548;BME280;48602;45.192;5.722;2022-12-18T12:54:21;100347.22;;;5.95;74.73
62548;BME280;48602;45.192;5.722;2022-12-18T12:57:11;100336.75;;;5.97;74.46
62548;BME280;48602;45.192;5.722;2022-12-18T13:02:38;100341.13;;;6.01;74.45
62548;BME280;48602;45.192;5.722;2022-12-18T13:05:45;100340.25;;;6.03;74.30
62548;BME280;48602;45.192;5.722;2022-12-18T13:08:28;100334.09;;;6.04;74.29
62548;BME280;48602;45.192;5.722;2022-12-18T13:10:55;100328.88;;;6.06;74.61
62548;BME280;48602;45.192;5.722;2022-12-18T13:13:55;100328.00;;;6.10;74.15
62548;BME280;48602;45.192;5.722;2022-12-18T13:16:25;100322.75;;;6.11;73.87
62548;BME280;48602;45.192;5.722;2022-12-18T13:18:56;100328.00;;;6.13;73.66
62548;BME280;48602;45.192;5.722;2022-12-18T13:23:52;100312.28;;;6.17;73.06
62548;BME280;48602;45.192;5.722;2022-12-18T13:34:25;100300.88;;;6.27;73.10
62548;BME280;48602;45.192;5.722;2022-12-18T13:36:54;100293.03;;;6.30;72.89
62548;BME280;48602;45.192;5.722;2022-12-18T13:39:23;100294.75;;;6.33;73.13
62548;BME280;48602;45.192;5.722;2022-12-18T13:41:53;100286.91;;;6.36;72.81
62548;BME280;48602;45.192;5.722;2022-12-18T13:44:34;100295.59;;;6.38;72.71
62548;BME280;48602;45.192;5.722;2022-12-18T13:47:02;100289.47;;;6.41;72.62
62548;BME280;48602;45.192;5.722;2022-12-18T13:49:42;100279.88;;;6.44;72.61
62548;BME280;48602;45.192;5.722;2022-12-18T13:52:21;100284.22;;;6.50;72.69
62548;BME280;48602;45.192;5.722;2022-12-18T13:54:51;100283.31;;;6.52;72.67
62548;BME280;48602;45.192;5.722;2022-12-18T13:57:33;100292.88;;;6.56;72.46
62548;BME280;48602;45.192;5.722;2022-12-18T14:02:45;100286.75;;;6.63;72.37
62548;BME280;48602;45.192;5.722;2022-12-18T14:05:33;100285.88;;;6.68;72.39
62548;BME280;48602;45.192;5.722;2022-12-18T14:08:05;100281.50;;;6.68;72.51
62548;BME280;48602;45.192;5.722;2022-12-18T14:10:32;100291.09;;;6.68;72.53
62548;BME280;48602;45.192;5.722;2022-12-18T14:13:05;100284.97;;;6.70;72.52
62548;BME280;48602;45.192;5.722;2022-12-18T14:15:46;100291.06;;;6.72;72.31
62548;BME280;48602;45.192;5.722;2022-12-18T14:18:46;100300.66;;;6.72;72.31
62548;BME280;48602;45.192;5.722;2022-12-18T14:21:25;100305.03;;;6.71;72.37
62548;BME280;48602;45.192;5.722;2022-12-18T14:26:42;100300.66;;;6.73;72.36
62548;BME280;48602;45.192;5.722;2022-12-18T14:29:28;100299.78;;;6.74;72.01
62548;BME280;48602;45.192;5.722;2022-12-18T14:34:34;100293.69;;;6.71;71.87
62548;BME280;48602;45.192;5.722;2022-12-18T14:37:00;100296.31;;;6.71;71.38
62548;BME280;48602;45.192;5.722;2022-12-18T14:39:25;100301.56;;;6.69;71.17
62548;BME280;48602;45.192;5.722;2022-12-18T14:41:51;100294.59;;;6.68;71.28
62548;BME280;48602;45.192;5.722;2022-12-18T14:44:17;100296.34;;;6.66;71.30
62548;BME280;48602;45.192;5.722;2022-12-18T14:46:44;100302.47;;;6.65;71.72
62548;BME280;48602;45.192;5.722;2022-12-18T14:49:29;100295.47;;;6.64;71.57